createdAt,value
2022-09-16T00:01:00.126Z,16.90
2022-09-16T00:03:27.559Z,16.10
2022-09-16T00:05:55.217Z,16.10
2022-09-16T00:08:23.027Z,16.60
2022-09-16T00:10:51.005Z,16.10
2022-09-16T00:13:19.319Z,16.60
2022-09-16T00:15:51.235Z,16.10
2022-09-16T00:20:52.497Z,16.90
2022-09-16T00:23:20.281Z,16.80
2022-09-16T00:25:53.120Z,15.90
2022-09-16T00:28:22.497Z,16.00
2022-09-16T00:30:50.700Z,15.30
2022-09-16T00:33:20.005Z,16.40
2022-09-16T00:35:47.960Z,16.90
2022-09-16T00:38:15.746Z,16.10
2022-09-16T00:40:48.793Z,17.00
2022-09-16T00:43:21.213Z,16.70
2022-09-16T00:46:00.792Z,16.10
2022-09-16T00:48:32.631Z,15.80
2022-09-16T00:51:09.293Z,16.10
2022-09-16T00:53:45.744Z,15.80
2022-09-16T00:56:17.921Z,15.80
2022-09-16T00:58:51.783Z,16.30
2022-09-16T01:03:54.540Z,15.90
2022-09-16T01:06:24.618Z,14.70
2022-09-16T01:13:48.711Z,15.90
2022-09-16T01:16:30.940Z,15.90
2022-09-16T01:19:23.021Z,16.10
2022-09-16T01:22:34.073Z,16.80
2022-09-16T01:25:39.783Z,16.60
2022-09-16T01:28:27.873Z,15.30
2022-09-16T01:31:10.116Z,15.50
2022-09-16T01:34:15.258Z,15.60
2022-09-16T01:36:51.405Z,15.10
2022-09-16T01:40:03.784Z,15.60
2022-09-16T01:43:23.168Z,16.80
2022-09-16T01:46:03.438Z,15.50
2022-09-16T01:48:58.837Z,15.10
2022-09-16T01:51:48.358Z,16.20
2022-09-16T01:54:34.060Z,15.60
2022-09-16T01:57:30.615Z,15.00
2022-09-16T02:00:16.785Z,14.70
2022-09-16T02:03:02.162Z,15.10
2022-09-16T02:05:40.871Z,14.70
2022-09-16T02:08:18.025Z,15.30
2022-09-16T02:10:59.618Z,15.20
2022-09-16T02:13:42.927Z,15.30
2022-09-16T02:16:26.627Z,16.00
2022-09-16T02:19:02.284Z,14.30
2022-09-16T02:21:34.788Z,15.50
2022-09-16T02:24:08.960Z,15.00
2022-09-16T02:26:42.792Z,11.10
2022-09-16T02:29:19.570Z,16.50
2022-09-16T02:31:55.485Z,14.20
2022-09-16T02:34:32.945Z,15.10
2022-09-16T02:37:11.918Z,15.20
2022-09-16T02:39:44.519Z,14.80
2022-09-16T02:42:11.845Z,14.50
2022-09-16T02:47:40.594Z,15.90
2022-09-16T02:50:14.529Z,15.80
2022-09-16T02:53:00.366Z,14.50
2022-09-16T02:55:49.225Z,15.00
2022-09-16T02:58:16.488Z,15.40
2022-09-16T03:00:49.404Z,15.00
2022-09-16T03:03:18.007Z,15.30
2022-09-16T03:06:29.408Z,15.60
2022-09-16T03:09:01.146Z,14.90
2022-09-16T03:11:45.597Z,14.80
2022-09-16T03:14:30.682Z,15.40
2022-09-16T03:17:45.510Z,15.00
2022-09-16T03:20:41.358Z,15.00
2022-09-16T03:23:14.350Z,14.80
2022-09-16T03:25:57.694Z,15.70
2022-09-16T03:29:05.408Z,14.50
2022-09-16T03:31:48.548Z,16.30
2022-09-16T03:34:41.156Z,14.70
2022-09-16T03:37:15.292Z,14.80
2022-09-16T03:42:13.254Z,15.50
2022-09-16T03:44:41.286Z,14.60
2022-09-16T03:47:10.667Z,15.00
2022-09-16T03:52:07.478Z,14.50
2022-09-16T03:57:04.498Z,14.30
2022-09-16T03:59:31.873Z,14.50
2022-09-16T04:04:26.800Z,14.90
2022-09-16T04:16:45.466Z,14.50
2022-09-16T04:19:14.720Z,15.30
2022-09-16T04:21:43.132Z,12.80
2022-09-16T04:24:13.171Z,14.40
2022-09-16T04:26:41.979Z,13.90
2022-09-16T04:31:37.453Z,13.50
2022-09-16T04:34:05.349Z,15.20
2022-09-16T04:39:00.915Z,13.50
2022-09-16T04:41:28.392Z,13.60
2022-09-16T04:43:58.808Z,14.00
2022-09-16T04:46:28.600Z,13.50
2022-09-16T04:48:57.115Z,14.10
2022-09-16T04:51:28.239Z,14.10
2022-09-16T04:53:58.369Z,13.20
2022-09-16T04:56:31.517Z,14.90
2022-09-16T04:59:04.935Z,14.10
2022-09-16T05:01:37.173Z,14.10
2022-09-16T05:04:07.611Z,15.40
2022-09-16T05:06:39.621Z,14.10
2022-09-16T05:09:07.201Z,14.60
2022-09-16T05:11:38.225Z,14.20
2022-09-16T05:14:10.469Z,13.80
2022-09-16T05:16:37.686Z,13.90
2022-09-16T05:19:05.259Z,13.90
2022-09-16T05:21:36.424Z,15.20
2022-09-16T05:24:08.842Z,15.30
2022-09-16T05:26:39.769Z,15.30
2022-09-16T05:29:11.292Z,17.50
2022-09-16T05:31:41.866Z,17.40
2022-09-16T05:34:16.575Z,18.20
2022-09-16T05:36:44.899Z,19.10
2022-09-16T05:39:22.842Z,20.80
2022-09-16T05:41:59.487Z,21.50
2022-09-16T05:44:29.039Z,21.20
2022-09-16T05:51:52.840Z,23.10
2022-09-16T05:54:23.375Z,22.20
2022-09-16T05:56:51.358Z,23.00
2022-09-16T06:04:15.872Z,24.80
2022-09-16T06:06:46.749Z,24.30
2022-09-16T06:09:30.205Z,23.70
2022-09-16T06:12:01.937Z,23.90
2022-09-16T06:14:30.089Z,23.60
2022-09-16T06:16:57.750Z,24.60
2022-09-16T06:19:25.159Z,25.90
2022-09-16T06:24:21.918Z,26.30
2022-09-16T06:26:49.735Z,27.00
2022-09-16T06:29:18.085Z,26.60
2022-09-16T06:31:45.686Z,27.40
2022-09-16T06:34:21.218Z,27.50
2022-09-16T06:36:48.381Z,27.80
2022-09-16T06:39:17.156Z,28.20
2022-09-16T06:44:13.527Z,28.00
2022-09-16T06:46:41.321Z,27.70
2022-09-16T06:49:11.180Z,30.10
2022-09-16T06:51:38.558Z,29.20
2022-09-16T06:54:08.518Z,30.10
2022-09-16T06:56:39.956Z,28.60
2022-09-16T06:59:08.023Z,29.80
2022-09-16T07:01:36.789Z,29.50
2022-09-16T07:04:11.115Z,30.10
2022-09-16T07:09:26.236Z,29.70
2022-09-16T07:11:53.422Z,29.80
2022-09-16T07:16:48.406Z,31.40
2022-09-16T07:19:15.780Z,29.50
2022-09-16T07:21:43.436Z,29.30
2022-09-16T07:24:13.809Z,30.60
2022-09-16T07:26:43.073Z,29.40
2022-09-16T07:29:14.980Z,30.80
2022-09-16T07:31:42.814Z,30.00
2022-09-16T07:34:12.725Z,31.10
2022-09-16T07:36:47.669Z,29.10
2022-09-16T07:39:17.489Z,30.80
2022-09-16T07:41:46.779Z,29.00
2022-09-16T07:44:16.919Z,29.70
2022-09-16T07:49:15.065Z,29.80
2022-09-16T07:51:43.167Z,30.00
2022-09-16T07:54:15.315Z,30.40
2022-09-16T07:56:44.413Z,29.60
2022-09-16T07:59:19.297Z,30.80
2022-09-16T08:01:50.821Z,30.50
2022-09-16T08:04:20.458Z,28.30
2022-09-16T08:06:48.831Z,28.30
2022-09-16T08:12:06.188Z,29.00
2022-09-16T08:14:34.238Z,29.30
2022-09-16T08:17:03.049Z,31.40
2022-09-16T08:19:30.772Z,31.60
2022-09-16T08:21:58.007Z,31.20
2022-09-16T08:24:25.514Z,32.60
2022-09-16T08:26:52.770Z,30.90
2022-09-16T08:34:17.743Z,33.00
2022-09-16T08:36:45.174Z,32.80
2022-09-16T08:39:12.354Z,33.90
2022-09-16T08:42:05.031Z,33.80
2022-09-16T08:44:37.855Z,34.40
2022-09-16T08:47:42.733Z,34.60
2022-09-16T08:50:26.352Z,33.10
2022-09-16T08:52:58.229Z,33.90
2022-09-16T08:55:50.874Z,34.40
2022-09-16T08:58:27.870Z,33.90
2022-09-16T09:01:11.423Z,34.50
2022-09-16T09:03:42.934Z,34.30
2022-09-16T09:06:38.340Z,30.90
2022-09-16T09:09:30.700Z,31.20
2022-09-16T09:12:21.506Z,31.30
2022-09-16T09:15:44.256Z,31.40
2022-09-16T09:18:24.121Z,31.00
2022-09-16T09:21:24.462Z,31.10
2022-09-16T09:24:31.967Z,30.50
2022-09-16T09:27:33.876Z,31.90
2022-09-16T09:30:25.419Z,31.50
2022-09-16T09:36:23.109Z,29.80
2022-09-16T09:42:08.383Z,28.80
2022-09-16T09:44:50.561Z,28.90
2022-09-16T09:47:27.877Z,28.30
2022-09-16T09:50:13.200Z,27.40
2022-09-16T09:52:52.313Z,27.10
2022-09-16T09:55:24.582Z,26.40
2022-09-16T09:58:37.487Z,26.00
2022-09-16T10:01:05.623Z,25.90
2022-09-16T10:03:34.625Z,26.10
2022-09-16T10:08:48.464Z,25.90
2022-09-16T10:11:26.105Z,26.80
2022-09-16T10:13:58.555Z,27.10
2022-09-16T10:16:32.242Z,27.60
2022-09-16T10:19:23.497Z,26.80
2022-09-16T10:22:08.099Z,26.10
2022-09-16T10:24:44.301Z,27.10
2022-09-16T10:27:34.255Z,26.10
2022-09-16T10:30:19.287Z,27.80
2022-09-16T10:35:32.979Z,27.10
2022-09-16T10:38:13.628Z,26.40
2022-09-16T10:40:55.967Z,26.10
2022-09-16T10:43:25.969Z,26.10
2022-09-16T10:45:55.188Z,26.10
2022-09-16T10:48:28.145Z,27.10
2022-09-16T10:51:06.536Z,26.10
2022-09-16T10:53:40.941Z,25.80
2022-09-16T10:56:24.039Z,24.30
2022-09-16T10:59:19.992Z,24.60
2022-09-16T11:02:43.109Z,24.80
2022-09-16T11:11:18.602Z,25.20
2022-09-16T11:17:12.481Z,24.30
2022-09-16T11:20:07.248Z,23.90
2022-09-16T11:23:25.019Z,24.20
2022-09-16T11:28:53.066Z,24.30
2022-09-16T11:31:57.408Z,24.10
2022-09-16T11:34:27.148Z,22.70
2022-09-16T11:37:12.458Z,22.40
2022-09-16T11:40:25.500Z,23.10
2022-09-16T11:43:21.416Z,22.10
2022-09-16T11:45:59.144Z,23.00
2022-09-16T11:49:06.310Z,22.20
2022-09-16T11:55:00.268Z,21.90
2022-09-16T11:57:34.947Z,24.70
2022-09-16T12:00:10.990Z,24.40
2022-09-16T12:03:06.051Z,22.70
2022-09-16T12:05:45.745Z,21.80
2022-09-16T12:08:52.882Z,21.90
2022-09-16T12:11:37.688Z,22.20
2022-09-16T12:14:31.780Z,21.30
2022-09-16T12:17:14.740Z,22.20
2022-09-16T12:20:13.867Z,21.50
2022-09-16T12:22:50.061Z,22.10
2022-09-16T12:25:46.244Z,21.40
2022-09-16T12:28:46.190Z,21.90
2022-09-16T12:31:51.557Z,22.30
2022-09-16T12:34:51.512Z,22.20
2022-09-16T12:37:33.840Z,21.10
2022-09-16T12:40:03.032Z,21.30
2022-09-16T12:42:59.058Z,22.40
2022-09-16T12:46:01.148Z,21.30
2022-09-16T12:49:00.563Z,21.20
2022-09-16T12:52:19.956Z,20.40
2022-09-16T12:55:30.730Z,22.00
2022-09-16T12:58:06.642Z,19.80
2022-09-16T13:01:05.058Z,20.20
2022-09-16T13:03:37.789Z,21.10
2022-09-16T13:06:21.585Z,20.40
2022-09-16T13:08:49.023Z,21.80
2022-09-16T13:14:25.836Z,20.60
2022-09-16T13:16:59.412Z,21.10
2022-09-16T13:19:30.066Z,21.20
2022-09-16T13:22:17.796Z,20.80
2022-09-16T13:24:56.110Z,20.80
2022-09-16T13:27:39.276Z,21.20
2022-09-16T13:30:30.813Z,21.80
2022-09-16T13:33:24.039Z,20.80
2022-09-16T13:36:20.854Z,20.00
2022-09-16T13:38:53.893Z,19.70
2022-09-16T13:41:39.115Z,19.90
2022-09-16T13:44:34.066Z,20.60
2022-09-16T13:47:10.510Z,20.30
2022-09-16T13:49:57.067Z,20.70
2022-09-16T13:52:34.177Z,20.80
2022-09-16T13:55:20.950Z,20.10
2022-09-16T13:58:15.556Z,20.80
2022-09-16T14:01:11.410Z,20.20
2022-09-16T14:03:54.821Z,19.50
2022-09-16T14:06:51.844Z,20.50
2022-09-16T14:10:03.551Z,20.50
2022-09-16T14:12:36.302Z,20.50
2022-09-16T14:15:05.957Z,20.10
2022-09-16T14:17:51.548Z,20.40
2022-09-16T14:20:23.752Z,19.80
2022-09-16T14:23:04.365Z,19.80
2022-09-16T14:25:36.323Z,20.40
2022-09-16T14:28:18.013Z,20.20
2022-09-16T14:31:00.975Z,20.00
2022-09-16T14:33:45.530Z,20.20
2022-09-16T14:36:26.617Z,19.60
2022-09-16T14:39:07.604Z,19.80
2022-09-16T14:41:52.821Z,19.50
2022-09-16T14:47:07.448Z,20.00
2022-09-16T14:49:39.357Z,20.20
2022-09-16T14:52:24.512Z,19.30
2022-09-16T14:54:55.892Z,19.90
2022-09-16T14:57:27.781Z,18.10
2022-09-16T14:59:59.631Z,19.20
2022-09-16T15:02:40.568Z,19.80
2022-09-16T15:05:27.243Z,19.20
2022-09-16T15:08:21.060Z,17.90
2022-09-16T15:10:53.315Z,20.20
2022-09-16T15:13:30.281Z,20.20
2022-09-16T15:16:18.864Z,18.20
2022-09-16T15:19:01.993Z,18.50
2022-09-16T15:21:35.238Z,18.90
2022-09-16T15:24:06.851Z,18.10
2022-09-16T15:26:50.075Z,18.00
2022-09-16T15:29:18.713Z,18.80
2022-09-16T15:34:23.303Z,18.40
2022-09-16T15:36:57.076Z,18.20
2022-09-16T15:39:35.619Z,18.60
2022-09-16T15:42:20.822Z,18.30
2022-09-16T15:44:48.898Z,18.20
2022-09-16T15:47:31.999Z,17.80
2022-09-16T15:50:18.106Z,17.60
2022-09-16T15:53:24.696Z,18.20
2022-09-16T15:55:59.041Z,18.50
2022-09-16T15:58:39.881Z,18.10
2022-09-16T16:01:09.111Z,17.80
2022-09-16T16:03:56.387Z,19.00
2022-09-16T16:07:01.058Z,18.30
2022-09-16T16:09:28.444Z,18.30
2022-09-16T16:12:00.901Z,19.00
2022-09-16T16:14:33.675Z,19.10
2022-09-16T16:17:21.961Z,18.80
2022-09-16T16:19:50.936Z,17.60
2022-09-16T16:22:18.604Z,17.90
2022-09-16T16:27:16.001Z,19.20
2022-09-16T16:29:43.161Z,18.30
2022-09-16T16:34:45.214Z,18.00
2022-09-16T16:37:33.915Z,16.80
2022-09-16T16:40:06.937Z,17.70
2022-09-16T16:42:35.819Z,18.10
2022-09-16T16:45:03.918Z,17.20
2022-09-16T16:47:31.276Z,17.60
2022-09-16T16:49:58.510Z,16.90
2022-09-16T16:52:25.628Z,17.50
2022-09-16T16:54:53.604Z,17.50
2022-09-16T16:57:20.941Z,17.30
2022-09-16T16:59:48.289Z,17.40
2022-09-16T17:02:15.861Z,18.80
2022-09-16T17:04:43.235Z,17.10
2022-09-16T17:09:59.364Z,17.40
2022-09-16T17:14:54.894Z,18.20
2022-09-16T17:24:50.640Z,16.30
2022-09-16T17:29:48.396Z,17.70
2022-09-16T17:32:16.555Z,15.90
2022-09-16T17:34:44.544Z,17.10
2022-09-16T17:39:41.779Z,17.90
2022-09-16T17:42:09.205Z,18.00
2022-09-16T17:47:04.739Z,17.70
2022-09-16T17:52:00.403Z,16.20
2022-09-16T17:54:27.998Z,17.90
2022-09-16T17:56:58.378Z,15.90
2022-09-16T17:59:26.041Z,18.10
2022-09-16T18:01:53.410Z,18.20
2022-09-16T18:04:20.640Z,18.10
2022-09-16T18:06:48.137Z,15.60
2022-09-16T18:09:18.829Z,18.00
2022-09-16T18:11:49.872Z,16.70
2022-09-16T18:14:21.308Z,17.70
2022-09-16T18:19:19.496Z,15.70
2022-09-16T18:24:15.426Z,16.00
2022-09-16T18:26:43.536Z,16.00
2022-09-16T18:29:13.645Z,16.50
2022-09-16T18:31:53.008Z,18.30
2022-09-16T18:34:21.045Z,18.20
2022-09-16T18:39:17.895Z,15.80
2022-09-16T18:41:46.566Z,16.40
2022-09-16T18:44:25.794Z,16.50
2022-09-16T18:46:53.830Z,15.70
2022-09-16T18:49:27.326Z,16.40
2022-09-16T18:51:55.052Z,15.70
2022-09-16T18:54:29.047Z,16.60
2022-09-16T18:57:02.288Z,16.30
2022-09-16T18:59:34.481Z,16.60
2022-09-16T19:02:04.292Z,16.20
2022-09-16T19:04:39.297Z,16.30
2022-09-16T19:07:09.111Z,16.60
2022-09-16T19:09:42.347Z,16.30
2022-09-16T19:12:12.770Z,16.30
2022-09-16T19:14:41.933Z,16.30
2022-09-16T19:17:10.972Z,16.70
2022-09-16T19:24:37.334Z,16.00
2022-09-16T19:27:04.751Z,16.50
2022-09-16T19:29:32.817Z,16.20
2022-09-16T19:32:00.130Z,16.60
2022-09-16T19:34:29.791Z,16.20
2022-09-16T19:39:27.844Z,16.50
2022-09-16T19:41:55.539Z,16.00
2022-09-16T19:44:23.476Z,15.80
2022-09-16T19:46:50.850Z,16.00
2022-09-16T19:49:21.509Z,15.60
2022-09-16T19:51:51.234Z,16.80
2022-09-16T19:54:19.105Z,16.60
2022-09-16T19:56:50.591Z,15.90
2022-09-16T19:59:19.548Z,16.20
2022-09-16T20:01:48.181Z,16.20
2022-09-16T20:04:20.601Z,16.40
2022-09-16T20:06:48.727Z,15.70
2022-09-16T20:11:46.977Z,15.90
2022-09-16T20:14:19.151Z,15.40
2022-09-16T20:16:48.388Z,16.30
2022-09-16T20:19:18.529Z,16.80
2022-09-16T20:24:18.796Z,16.30
2022-09-16T20:26:48.463Z,15.80
2022-09-16T20:29:18.096Z,15.70
2022-09-16T20:31:47.394Z,15.60
2022-09-16T20:34:16.232Z,16.00
2022-09-16T20:36:46.029Z,15.70
2022-09-16T20:39:14.715Z,16.30
2022-09-16T20:41:43.557Z,15.80
2022-09-16T20:44:15.889Z,15.60
2022-09-16T20:46:43.850Z,16.50
2022-09-16T20:49:16.857Z,15.60
2022-09-16T20:51:45.489Z,15.50
2022-09-16T20:54:15.535Z,16.20
2022-09-16T20:56:47.118Z,15.50
2022-09-16T20:59:17.117Z,15.50
2022-09-16T21:01:46.950Z,15.40
2022-09-16T21:04:19.010Z,15.50
2022-09-16T21:06:46.986Z,13.70
2022-09-16T21:09:15.840Z,15.40
2022-09-16T21:14:16.435Z,15.40
2022-09-16T21:16:45.922Z,15.40
2022-09-16T21:19:14.203Z,16.30
2022-09-16T21:21:44.782Z,15.30
2022-09-16T21:24:13.509Z,15.50
2022-09-16T21:26:41.618Z,15.60
2022-09-16T21:29:14.220Z,15.30
2022-09-16T21:31:43.201Z,15.60
2022-09-16T21:34:17.715Z,15.30
2022-09-16T21:36:45.335Z,15.70
2022-09-16T21:39:34.312Z,15.20
2022-09-16T21:46:57.936Z,15.30
2022-09-16T21:51:56.248Z,15.20
2022-09-16T21:54:25.287Z,15.20
2022-09-16T21:56:53.158Z,16.20
2022-09-16T21:59:21.470Z,15.80
2022-09-16T22:01:51.263Z,14.00
2022-09-16T22:04:22.867Z,14.80
2022-09-16T22:06:52.829Z,15.30
2022-09-16T22:11:49.001Z,14.20
2022-09-16T22:14:17.995Z,15.30
2022-09-16T22:16:45.543Z,15.70
2022-09-16T22:19:17.790Z,14.70
2022-09-16T22:21:50.587Z,14.70
2022-09-16T22:24:22.422Z,16.10
2022-09-16T22:26:51.804Z,14.80
2022-09-16T22:31:47.504Z,14.40
2022-09-16T22:34:15.149Z,13.70
2022-09-16T22:39:20.024Z,14.50
2022-09-16T22:41:47.885Z,15.00
2022-09-16T22:46:49.439Z,13.90
2022-09-16T22:51:44.885Z,14.80
2022-09-16T22:54:14.262Z,13.80
2022-09-16T22:56:43.983Z,14.50
2022-09-16T22:59:19.609Z,14.80
2022-09-16T23:09:14.282Z,14.30
2022-09-16T23:11:43.163Z,14.70
2022-09-16T23:14:16.050Z,14.60
2022-09-16T23:16:44.085Z,13.80
2022-09-16T23:19:12.671Z,14.30
2022-09-16T23:24:14.477Z,14.30
2022-09-16T23:26:42.989Z,14.80
2022-09-16T23:29:13.153Z,15.00
2022-09-16T23:31:43.884Z,14.20
2022-09-16T23:34:21.071Z,14.30
2022-09-16T23:36:50.066Z,14.20
2022-09-16T23:39:18.558Z,14.20
2022-09-16T23:41:47.040Z,14.40
2022-09-16T23:44:18.606Z,14.30
2022-09-16T23:46:46.485Z,14.70
2022-09-16T23:49:17.197Z,13.80
2022-09-16T23:51:47.862Z,13.00
2022-09-16T23:54:16.172Z,14.00
2022-09-16T23:59:19.666Z,13.60
